createdAt,value
2022-09-17T00:00:33.793Z,9.53
2022-09-17T00:04:04.821Z,9.51
2022-09-17T00:07:28.114Z,9.51
2022-09-17T00:10:50.974Z,9.44
2022-09-17T00:14:18.740Z,9.49
2022-09-17T00:17:42.115Z,9.52
2022-09-17T00:21:06.460Z,9.52
2022-09-17T00:24:29.673Z,9.53
2022-09-17T00:27:52.839Z,9.53
2022-09-17T00:31:15.712Z,9.55
2022-09-17T00:34:38.653Z,9.56
2022-09-17T00:38:03.457Z,9.54
2022-09-17T00:41:30.005Z,9.51
2022-09-17T00:44:55.312Z,9.58
2022-09-17T00:48:24.933Z,9.61
2022-09-17T00:52:00.147Z,9.57
2022-09-17T00:55:29.485Z,9.65
2022-09-17T00:58:53.898Z,9.65
2022-09-17T01:02:17.594Z,9.64
2022-09-17T01:05:51.674Z,9.63
2022-09-17T01:09:32.174Z,9.62
2022-09-17T01:13:15.899Z,9.64
2022-09-17T01:16:46.636Z,9.66
2022-09-17T01:20:39.516Z,9.68
2022-09-17T01:24:35.335Z,9.68
2022-09-17T01:28:34.230Z,9.69
2022-09-17T01:32:01.695Z,9.67
2022-09-17T01:35:35.716Z,9.67
2022-09-17T01:39:05.743Z,9.67
2022-09-17T01:42:38.334Z,9.64
2022-09-17T01:46:10.750Z,9.64
2022-09-17T01:49:39.708Z,9.71
2022-09-17T01:53:06.053Z,9.73
2022-09-17T01:56:34.132Z,9.74
2022-09-17T02:00:01.600Z,9.73
2022-09-17T02:03:31.009Z,9.71
2022-09-17T02:07:00.420Z,9.74
2022-09-17T02:10:28.624Z,9.75
2022-09-17T02:13:59.247Z,9.67
2022-09-17T02:17:29.066Z,9.72
2022-09-17T02:21:01.341Z,9.70
2022-09-17T02:24:27.701Z,9.69
2022-09-17T02:27:58.834Z,9.68
2022-09-17T02:31:22.244Z,9.68
2022-09-17T02:34:45.470Z,9.70
2022-09-17T02:38:08.116Z,9.63
2022-09-17T02:41:45.823Z,9.72
2022-09-17T02:45:20.363Z,9.72
2022-09-17T02:49:03.706Z,9.72
2022-09-17T02:52:36.695Z,9.72
2022-09-17T02:56:07.645Z,9.71
2022-09-17T02:59:35.415Z,9.70
2022-09-17T03:03:03.692Z,9.69
2022-09-17T03:06:26.855Z,9.67
2022-09-17T03:09:49.616Z,9.63
2022-09-17T03:13:12.884Z,9.65
2022-09-17T03:16:36.908Z,9.63
2022-09-17T03:20:00.236Z,9.62
2022-09-17T03:23:23.399Z,9.61
2022-09-17T03:26:47.897Z,9.60
2022-09-17T03:30:11.875Z,9.57
2022-09-17T03:33:36.272Z,9.53
2022-09-17T03:36:59.023Z,9.52
2022-09-17T03:40:21.780Z,9.48
2022-09-17T03:43:44.432Z,9.46
2022-09-17T03:47:08.319Z,9.45
2022-09-17T03:50:33.122Z,9.39
2022-09-17T03:53:56.282Z,9.36
2022-09-17T03:57:18.935Z,9.34
2022-09-17T04:00:42.515Z,9.31
2022-09-17T04:04:05.364Z,9.27
2022-09-17T04:07:29.972Z,9.32
2022-09-17T04:10:53.446Z,9.30
2022-09-17T04:14:16.908Z,9.32
2022-09-17T04:17:39.872Z,9.34
2022-09-17T04:21:02.627Z,9.38
2022-09-17T04:24:28.249Z,9.39
2022-09-17T04:27:51.727Z,9.41
2022-09-17T04:31:14.597Z,9.42
2022-09-17T04:34:37.949Z,9.43
2022-09-17T04:38:01.013Z,9.45
2022-09-17T04:41:25.737Z,9.48
2022-09-17T04:44:49.285Z,9.52
2022-09-17T04:48:11.939Z,9.48
2022-09-17T04:51:34.738Z,9.53
2022-09-17T04:54:58.166Z,9.57
2022-09-17T04:58:22.599Z,9.61
2022-09-17T05:01:45.739Z,9.63
2022-09-17T05:05:09.503Z,9.69
2022-09-17T05:08:32.876Z,9.68
2022-09-17T05:11:56.441Z,9.75
2022-09-17T05:15:21.652Z,9.83
2022-09-17T05:18:44.211Z,9.99
2022-09-17T05:22:07.680Z,10.12
2022-09-17T05:25:31.362Z,10.16
2022-09-17T05:28:54.239Z,10.16
2022-09-17T05:32:18.711Z,10.27
2022-09-17T05:35:41.870Z,10.45
2022-09-17T05:39:05.249Z,10.57
2022-09-17T05:42:28.102Z,10.71
2022-09-17T05:45:51.061Z,10.88
2022-09-17T05:49:17.319Z,10.98
2022-09-17T05:52:40.263Z,11.00
2022-09-17T05:56:04.256Z,11.03
2022-09-17T05:59:27.201Z,11.13
2022-09-17T06:02:56.955Z,11.24
2022-09-17T06:06:21.724Z,11.38
2022-09-17T06:09:44.887Z,11.47
2022-09-17T06:13:07.881Z,11.55
2022-09-17T06:16:32.110Z,11.51
2022-09-17T06:19:55.202Z,11.45
2022-09-17T06:23:19.187Z,11.42
2022-09-17T06:26:41.938Z,11.41
2022-09-17T06:30:04.695Z,11.38
2022-09-17T06:33:27.757Z,11.38
2022-09-17T06:36:51.940Z,11.44
2022-09-17T06:40:16.797Z,11.54
2022-09-17T06:43:39.703Z,11.62
2022-09-17T06:47:02.156Z,11.81
2022-09-17T06:50:25.960Z,11.95
2022-09-17T06:53:49.113Z,12.08
2022-09-17T06:57:13.591Z,12.13
2022-09-17T07:00:36.793Z,12.20
2022-09-17T07:04:00.642Z,12.29
2022-09-17T07:07:23.196Z,12.47
2022-09-17T07:10:45.949Z,12.57
2022-09-17T07:14:10.651Z,12.57
2022-09-17T07:17:33.507Z,12.50
2022-09-17T07:20:57.387Z,12.44
2022-09-17T07:24:22.188Z,12.36
2022-09-17T07:27:44.940Z,12.18
2022-09-17T07:31:15.181Z,12.13
2022-09-17T07:34:38.955Z,11.97
2022-09-17T07:38:02.221Z,11.89
2022-09-17T07:41:25.694Z,11.82
2022-09-17T07:44:48.752Z,11.81
2022-09-17T07:48:13.452Z,11.77
2022-09-17T07:51:36.786Z,11.76
2022-09-17T07:54:59.576Z,11.74
2022-09-17T07:58:22.787Z,11.70
2022-09-17T08:01:46.004Z,11.65
2022-09-17T08:05:11.540Z,11.64
2022-09-17T08:08:36.330Z,11.55
2022-09-17T08:12:00.319Z,11.58
2022-09-17T08:15:25.230Z,11.61
2022-09-17T08:18:49.001Z,11.61
2022-09-17T08:22:13.402Z,11.80
2022-09-17T08:25:36.464Z,11.98
2022-09-17T08:28:59.856Z,12.29
2022-09-17T08:32:22.599Z,12.57
2022-09-17T08:35:45.255Z,12.83
2022-09-17T08:39:12.603Z,13.07
2022-09-17T08:42:43.751Z,13.02
2022-09-17T08:46:07.381Z,13.07
2022-09-17T08:49:36.735Z,13.17
2022-09-17T08:53:24.685Z,13.28
2022-09-17T08:57:03.209Z,13.37
2022-09-17T09:00:27.187Z,13.34
2022-09-17T09:04:22.204Z,13.31
2022-09-17T09:07:50.815Z,13.48
2022-09-17T09:11:16.932Z,13.74
2022-09-17T09:14:47.672Z,13.92
2022-09-17T09:18:19.955Z,14.13
2022-09-17T09:21:50.388Z,14.29
2022-09-17T09:25:24.205Z,14.36
2022-09-17T09:29:08.146Z,14.48
2022-09-17T09:32:57.223Z,14.57
2022-09-17T09:36:22.353Z,14.80
2022-09-17T09:39:51.713Z,15.08
2022-09-17T09:43:23.001Z,15.10
2022-09-17T09:47:13.977Z,15.22
2022-09-17T09:51:05.858Z,15.36
2022-09-17T09:54:44.687Z,15.35
2022-09-17T09:58:15.022Z,15.39
2022-09-17T10:01:45.507Z,15.43
2022-09-17T10:05:10.668Z,15.37
2022-09-17T10:08:36.870Z,15.25
2022-09-17T10:12:06.002Z,15.32
2022-09-17T10:15:30.704Z,15.37
2022-09-17T10:19:13.637Z,15.27
2022-09-17T10:22:38.951Z,15.08
2022-09-17T10:26:03.142Z,14.87
2022-09-17T10:29:26.465Z,14.64
2022-09-17T10:33:20.296Z,14.55
2022-09-17T10:36:45.610Z,14.35
2022-09-17T10:40:31.891Z,13.90
2022-09-17T10:43:57.029Z,13.64
2022-09-17T10:47:24.391Z,13.49
2022-09-17T10:50:51.546Z,13.34
2022-09-17T10:54:46.559Z,13.14
2022-09-17T10:58:20.843Z,13.09
2022-09-17T11:01:58.908Z,13.12
2022-09-17T11:05:39.675Z,13.14
2022-09-17T11:09:16.777Z,13.24
2022-09-17T11:12:50.991Z,13.35
2022-09-17T11:16:24.924Z,13.32
2022-09-17T11:20:00.565Z,13.26
2022-09-17T11:23:38.583Z,13.29
2022-09-17T11:27:12.497Z,13.38
2022-09-17T11:30:45.798Z,13.37
2022-09-17T11:34:26.369Z,13.45
2022-09-17T11:37:59.724Z,13.57
2022-09-17T11:41:27.036Z,13.59
2022-09-17T11:44:54.416Z,13.51
2022-09-17T11:48:22.484Z,13.36
2022-09-17T11:51:51.484Z,13.37
2022-09-17T11:55:26.622Z,13.29
2022-09-17T11:58:53.580Z,13.22
2022-09-17T12:02:26.915Z,13.10
2022-09-17T12:05:54.248Z,13.05
2022-09-17T12:09:22.854Z,13.05
2022-09-17T12:12:55.016Z,13.06
2022-09-17T12:16:23.233Z,13.10
2022-09-17T12:19:51.376Z,13.21
2022-09-17T12:23:17.863Z,13.22
2022-09-17T12:26:57.779Z,13.27
2022-09-17T12:30:26.678Z,13.29
2022-09-17T12:33:55.981Z,13.28
2022-09-17T12:37:26.722Z,13.35
2022-09-17T12:41:00.460Z,13.37
2022-09-17T12:44:45.640Z,13.43
2022-09-17T12:48:33.669Z,13.60
2022-09-17T12:52:00.620Z,13.65
2022-09-17T12:55:34.769Z,13.60
2022-09-17T12:59:12.034Z,13.46
2022-09-17T13:02:40.628Z,13.32
2022-09-17T13:06:32.867Z,13.26
2022-09-17T13:10:12.795Z,13.35
2022-09-17T13:13:45.731Z,13.36
2022-09-17T13:17:12.072Z,13.34
2022-09-17T13:20:40.354Z,13.29
2022-09-17T13:24:18.062Z,13.25
2022-09-17T13:27:45.021Z,13.15
2022-09-17T13:31:09.256Z,13.12
2022-09-17T13:34:36.764Z,13.10
2022-09-17T13:38:01.394Z,13.13
2022-09-17T13:41:26.047Z,13.25
2022-09-17T13:44:54.458Z,13.21
2022-09-17T13:48:24.696Z,13.21
2022-09-17T13:51:55.328Z,13.31
2022-09-17T13:55:39.072Z,13.40
2022-09-17T13:59:10.882Z,13.40
2022-09-17T14:02:42.744Z,13.40
2022-09-17T14:06:38.643Z,13.50
2022-09-17T14:10:03.032Z,13.58
2022-09-17T14:13:45.439Z,13.50
2022-09-17T14:17:10.766Z,13.40
2022-09-17T14:20:36.492Z,13.33
2022-09-17T14:24:02.830Z,13.26
2022-09-17T14:27:58.253Z,13.24
2022-09-17T14:31:27.062Z,13.25
2022-09-17T14:34:52.358Z,13.33
2022-09-17T14:38:18.933Z,13.43
2022-09-17T14:41:44.534Z,13.44
2022-09-17T14:45:17.652Z,13.49
2022-09-17T14:48:40.683Z,13.57
2022-09-17T14:52:25.660Z,13.60
2022-09-17T14:55:51.898Z,13.60
2022-09-17T14:59:23.667Z,13.54
2022-09-17T15:02:47.684Z,13.40
2022-09-17T15:06:22.598Z,13.36
2022-09-17T15:09:47.297Z,13.26
2022-09-17T15:13:15.900Z,13.21
2022-09-17T15:16:38.693Z,13.21
2022-09-17T15:20:08.255Z,13.18
2022-09-17T15:23:34.499Z,13.23
2022-09-17T15:27:14.863Z,13.21
2022-09-17T15:30:37.730Z,13.17
2022-09-17T15:34:03.340Z,13.06
2022-09-17T15:37:29.784Z,12.96
2022-09-17T15:40:53.671Z,12.91
2022-09-17T15:44:30.291Z,12.83
2022-09-17T15:47:56.127Z,12.78
2022-09-17T15:51:27.339Z,12.73
2022-09-17T15:54:50.281Z,12.75
2022-09-17T15:58:27.370Z,12.71
2022-09-17T16:02:00.093Z,12.67
2022-09-17T16:05:56.508Z,12.59
2022-09-17T16:09:41.900Z,12.54
2022-09-17T16:13:04.663Z,12.50
2022-09-17T16:16:32.700Z,12.48
2022-09-17T16:19:58.856Z,12.44
2022-09-17T16:23:23.876Z,12.43
2022-09-17T16:26:46.922Z,12.39
2022-09-17T16:30:15.844Z,12.35
2022-09-17T16:33:38.484Z,12.31
2022-09-17T16:37:02.788Z,12.32
2022-09-17T16:40:28.646Z,12.29
2022-09-17T16:43:51.048Z,12.23
2022-09-17T16:47:13.928Z,12.14
2022-09-17T16:50:37.487Z,12.07
2022-09-17T16:54:03.320Z,12.04
2022-09-17T16:57:26.471Z,12.00
2022-09-17T17:00:49.786Z,11.97
2022-09-17T17:04:12.804Z,11.91
2022-09-17T17:07:37.404Z,11.81
2022-09-17T17:11:01.702Z,11.72
2022-09-17T17:14:24.651Z,11.63
2022-09-17T17:17:47.412Z,11.54
2022-09-17T17:21:11.939Z,11.48
2022-09-17T17:24:34.762Z,11.40
2022-09-17T17:27:59.050Z,11.39
2022-09-17T17:31:22.136Z,11.35
2022-09-17T17:34:45.488Z,11.28
2022-09-17T17:38:08.551Z,11.27
2022-09-17T17:41:31.965Z,11.24
2022-09-17T17:44:56.143Z,11.20
2022-09-17T17:48:19.271Z,11.16
2022-09-17T17:51:42.130Z,11.17
2022-09-17T17:55:05.497Z,11.17
2022-09-17T17:58:28.870Z,11.14
2022-09-17T18:01:53.047Z,11.13
2022-09-17T18:05:16.116Z,11.15
2022-09-17T18:08:39.600Z,11.14
2022-09-17T18:12:02.653Z,11.16
2022-09-17T18:15:25.714Z,11.16
2022-09-17T18:18:51.125Z,11.14
2022-09-17T18:22:13.784Z,11.12
2022-09-17T18:25:36.949Z,11.10
2022-09-17T18:29:01.429Z,11.00
2022-09-17T18:32:27.477Z,10.94
2022-09-17T18:35:52.283Z,10.90
2022-09-17T18:43:00.522Z,10.76
2022-09-17T18:46:23.127Z,10.68
2022-09-17T18:49:46.334Z,10.63
2022-09-17T18:53:10.625Z,10.58
2022-09-17T18:56:34.965Z,10.54
2022-09-17T18:59:58.803Z,10.47
2022-09-17T19:03:25.136Z,10.32
2022-09-17T19:06:48.209Z,10.40
2022-09-17T19:10:13.418Z,10.39
2022-09-17T19:13:38.124Z,10.35
2022-09-17T19:17:00.867Z,10.34
2022-09-17T19:20:24.346Z,10.31
2022-09-17T19:23:51.926Z,10.24
2022-09-17T19:27:16.620Z,10.36
2022-09-17T19:30:40.296Z,10.35
2022-09-17T19:34:03.549Z,10.31
2022-09-17T19:37:26.824Z,10.30
2022-09-17T19:40:58.381Z,10.27
2022-09-17T19:44:24.419Z,10.24
2022-09-17T19:47:47.170Z,10.18
2022-09-17T19:51:09.819Z,10.09
2022-09-17T19:54:32.200Z,10.04
2022-09-17T19:57:58.974Z,10.00
2022-09-17T20:01:23.394Z,9.96
2022-09-17T20:04:47.401Z,9.90
2022-09-17T20:08:10.363Z,9.81
2022-09-17T20:11:33.117Z,9.78
2022-09-17T20:14:55.876Z,9.71
2022-09-17T20:18:23.286Z,9.68
2022-09-17T20:21:47.117Z,9.63
2022-09-17T20:25:10.787Z,9.61
2022-09-17T20:28:33.448Z,9.59
2022-09-17T20:31:56.216Z,9.55
2022-09-17T20:35:20.382Z,9.53
2022-09-17T20:42:26.891Z,9.47
2022-09-17T20:45:56.812Z,9.42
2022-09-17T20:49:19.566Z,9.37
2022-09-17T20:52:43.990Z,9.35
2022-09-17T20:56:08.656Z,9.28
2022-09-17T20:59:50.977Z,9.26
2022-09-17T21:03:14.549Z,9.23
2022-09-17T21:06:39.968Z,9.16
2022-09-17T21:10:04.559Z,9.13
2022-09-17T21:13:27.314Z,9.11
2022-09-17T21:16:50.787Z,9.09
2022-09-17T21:20:13.551Z,9.02
2022-09-17T21:23:38.763Z,8.91
2022-09-17T21:27:03.149Z,8.94
2022-09-17T21:30:26.111Z,8.95
2022-09-17T21:33:51.431Z,8.85
2022-09-17T21:37:14.383Z,8.79
2022-09-17T21:40:37.191Z,8.83
2022-09-17T21:44:01.739Z,8.80
2022-09-17T21:47:24.594Z,8.78
2022-09-17T21:50:46.946Z,8.77
2022-09-17T21:54:11.011Z,8.76
2022-09-17T21:57:33.986Z,8.79
2022-09-17T22:00:59.005Z,8.80
2022-09-17T22:04:23.797Z,8.84
2022-09-17T22:07:46.756Z,8.89
2022-09-17T22:11:12.380Z,8.93
2022-09-17T22:14:35.752Z,8.95
2022-09-17T22:18:00.561Z,8.97
2022-09-17T22:21:25.566Z,8.99
2022-09-17T22:24:48.621Z,8.98
2022-09-17T22:28:21.373Z,9.05
2022-09-17T22:31:45.080Z,9.08
2022-09-17T22:35:11.125Z,9.11
2022-09-17T22:38:33.778Z,9.12
2022-09-17T22:41:57.019Z,9.14
2022-09-17T22:45:19.806Z,9.16
2022-09-17T22:48:42.862Z,9.20
2022-09-17T22:52:07.367Z,9.22
2022-09-17T22:55:30.026Z,9.25
2022-09-17T22:58:53.177Z,9.28
2022-09-17T23:02:16.543Z,9.29
2022-09-17T23:05:39.601Z,9.30
2022-09-17T23:09:04.511Z,9.32
2022-09-17T23:12:27.676Z,9.32
2022-09-17T23:15:51.109Z,9.31
2022-09-17T23:19:14.033Z,9.36
2022-09-17T23:22:36.966Z,9.35
2022-09-17T23:26:05.145Z,9.36
2022-09-17T23:29:28.211Z,9.35
2022-09-17T23:32:54.347Z,9.33
2022-09-17T23:36:19.758Z,9.30
2022-09-17T23:39:42.514Z,9.26
2022-09-17T23:43:07.018Z,9.23
2022-09-17T23:46:32.895Z,9.18
2022-09-17T23:49:56.416Z,9.14
2022-09-17T23:53:19.376Z,9.07
2022-09-17T23:56:42.540Z,9.05
